createdAt,value
2022-10-23T00:01:16.566Z,17.09
2022-10-23T00:03:45.639Z,17.26
2022-10-23T00:06:15.012Z,17.38
2022-10-23T00:08:43.375Z,16.73
2022-10-23T00:11:13.434Z,16.74
2022-10-23T00:13:43.172Z,17.00
2022-10-23T00:16:11.929Z,17.12
2022-10-23T00:18:41.065Z,17.21
2022-10-23T00:21:12.017Z,17.21
2022-10-23T00:23:40.673Z,17.14
2022-10-23T00:26:11.182Z,17.05
2022-10-23T00:28:39.247Z,17.02
2022-10-23T00:31:08.722Z,17.13
2022-10-23T00:33:37.699Z,17.26
2022-10-23T00:36:07.509Z,17.07
2022-10-23T00:38:36.230Z,17.23
2022-10-23T00:41:04.864Z,17.22
2022-10-23T00:43:34.576Z,16.97
2022-10-23T00:46:03.080Z,17.07
2022-10-23T00:48:32.467Z,17.11
2022-10-23T00:51:00.741Z,17.05
2022-10-23T00:53:28.775Z,17.08
2022-10-23T00:55:57.760Z,17.09
2022-10-23T00:58:25.679Z,17.00
2022-10-23T01:00:55.757Z,17.01
2022-10-23T01:03:27.268Z,17.07
2022-10-23T01:06:09.850Z,16.96
2022-10-23T01:08:45.577Z,16.93
2022-10-23T01:11:18.593Z,16.93
2022-10-23T01:13:56.287Z,16.85
2022-10-23T01:16:32.218Z,16.69
2022-10-23T01:19:10.616Z,16.66
2022-10-23T01:21:50.499Z,16.70
2022-10-23T01:24:32.240Z,16.53
2022-10-23T01:27:23.731Z,16.70
2022-10-23T01:30:03.296Z,16.85
2022-10-23T01:32:40.483Z,16.64
2022-10-23T01:35:14.261Z,16.64
2022-10-23T01:37:46.296Z,16.59
2022-10-23T01:40:21.526Z,16.64
2022-10-23T01:42:53.813Z,16.85
2022-10-23T01:45:30.099Z,17.07
2022-10-23T01:47:58.829Z,17.26
2022-10-23T01:50:29.172Z,17.15
2022-10-23T01:52:57.361Z,17.23
2022-10-23T01:55:26.875Z,17.13
2022-10-23T01:57:55.840Z,17.02
2022-10-23T02:00:25.379Z,17.14
2022-10-23T02:02:54.305Z,17.19
2022-10-23T02:05:25.777Z,17.26
2022-10-23T02:07:54.873Z,17.25
2022-10-23T02:10:27.588Z,17.34
2022-10-23T02:13:01.420Z,17.36
2022-10-23T02:15:35.987Z,17.21
2022-10-23T02:18:09.708Z,17.14
2022-10-23T02:20:41.734Z,17.12
2022-10-23T02:23:20.447Z,17.13
2022-10-23T02:25:54.627Z,17.25
2022-10-23T02:28:28.989Z,17.23
2022-10-23T02:31:01.480Z,17.23
2022-10-23T02:33:31.740Z,17.08
2022-10-23T02:35:59.762Z,16.97
2022-10-23T02:38:31.771Z,17.06
2022-10-23T02:41:10.962Z,17.32
2022-10-23T02:43:46.863Z,18.10
2022-10-23T02:46:23.404Z,18.76
2022-10-23T02:48:59.810Z,19.32
2022-10-23T02:51:35.111Z,19.77
2022-10-23T02:54:08.801Z,20.17
2022-10-23T02:56:42.240Z,20.61
2022-10-23T02:59:16.601Z,20.85
2022-10-23T03:01:52.149Z,20.98
2022-10-23T03:04:24.985Z,21.18
2022-10-23T03:06:53.660Z,21.30
2022-10-23T03:09:21.669Z,21.50
2022-10-23T03:11:49.612Z,21.49
2022-10-23T03:14:17.490Z,21.55
2022-10-23T03:16:46.783Z,21.65
2022-10-23T03:19:14.902Z,21.71
2022-10-23T03:21:42.833Z,21.83
2022-10-23T03:24:10.731Z,21.77
2022-10-23T03:26:38.711Z,21.86
2022-10-23T03:29:06.694Z,22.03
2022-10-23T03:31:34.659Z,22.00
2022-10-23T03:34:07.511Z,21.93
2022-10-23T03:36:36.674Z,22.05
2022-10-23T03:39:05.195Z,22.07
2022-10-23T03:41:33.745Z,21.92
2022-10-23T03:44:01.803Z,21.97
2022-10-23T03:46:29.930Z,21.91
2022-10-23T03:48:58.998Z,21.85
2022-10-23T03:51:28.975Z,21.72
2022-10-23T03:53:57.235Z,21.46
2022-10-23T03:56:28.020Z,21.46
2022-10-23T03:58:55.911Z,21.33
2022-10-23T04:01:23.984Z,21.07
2022-10-23T04:03:52.000Z,21.22
2022-10-23T04:06:19.973Z,21.38
2022-10-23T04:08:49.446Z,21.73
2022-10-23T04:11:17.405Z,21.94
2022-10-23T04:13:45.315Z,22.18
2022-10-23T04:16:13.336Z,22.25
2022-10-23T04:18:41.824Z,22.26
2022-10-23T04:21:09.926Z,22.24
2022-10-23T04:23:37.927Z,22.19
2022-10-23T04:26:07.436Z,22.14
2022-10-23T04:28:35.531Z,22.04
2022-10-23T04:31:03.640Z,22.05
2022-10-23T04:33:31.518Z,22.19
2022-10-23T04:35:59.472Z,22.14
2022-10-23T04:38:27.411Z,22.16
2022-10-23T04:40:55.390Z,22.38
2022-10-23T04:43:24.748Z,22.38
2022-10-23T04:45:52.705Z,22.44
2022-10-23T04:48:23.384Z,22.39
2022-10-23T04:50:57.956Z,22.40
2022-10-23T04:53:26.314Z,22.44
2022-10-23T04:55:55.824Z,22.51
2022-10-23T04:58:26.065Z,22.37
2022-10-23T05:00:54.252Z,22.37
2022-10-23T05:03:23.323Z,22.31
2022-10-23T05:05:54.040Z,22.20
2022-10-23T05:08:22.419Z,21.93
2022-10-23T05:10:50.803Z,21.81
2022-10-23T05:13:20.058Z,21.73
2022-10-23T05:15:50.533Z,21.68
2022-10-23T05:18:21.780Z,21.41
2022-10-23T05:20:52.028Z,21.37
2022-10-23T05:23:23.803Z,21.35
2022-10-23T05:25:51.722Z,21.48
2022-10-23T05:28:19.777Z,21.63
2022-10-23T05:30:49.613Z,21.77
2022-10-23T05:33:17.691Z,22.04
2022-10-23T05:35:46.444Z,22.13
2022-10-23T05:38:15.955Z,21.91
2022-10-23T05:40:43.900Z,22.06
2022-10-23T05:43:11.822Z,22.06
2022-10-23T05:45:39.707Z,22.02
2022-10-23T05:48:11.316Z,22.13
2022-10-23T05:50:50.412Z,22.22
2022-10-23T05:53:18.453Z,22.10
2022-10-23T05:55:46.381Z,22.13
2022-10-23T05:58:14.346Z,22.22
2022-10-23T06:00:42.256Z,22.31
2022-10-23T06:03:11.577Z,22.18
2022-10-23T06:05:41.815Z,22.12
2022-10-23T06:08:09.897Z,21.52
2022-10-23T06:10:38.071Z,21.51
2022-10-23T06:13:07.117Z,21.26
2022-10-23T06:15:35.152Z,21.35
2022-10-23T06:18:05.426Z,21.19
2022-10-23T06:20:37.387Z,21.14
2022-10-23T06:23:05.504Z,21.08
2022-10-23T06:25:33.485Z,20.95
2022-10-23T06:28:01.467Z,20.43
2022-10-23T06:30:29.441Z,20.45
2022-10-23T06:32:57.388Z,20.73
2022-10-23T06:35:25.539Z,21.17
2022-10-23T06:37:54.810Z,21.54
2022-10-23T06:40:22.798Z,21.72
2022-10-23T06:42:50.753Z,21.92
2022-10-23T06:45:18.673Z,22.11
2022-10-23T06:47:46.688Z,22.19
2022-10-23T06:50:15.644Z,22.23
2022-10-23T06:52:47.016Z,22.42
2022-10-23T06:55:17.155Z,22.71
2022-10-23T06:57:45.845Z,22.85
2022-10-23T07:00:14.872Z,22.91
2022-10-23T07:02:42.999Z,23.04
2022-10-23T07:05:13.561Z,23.29
2022-10-23T07:07:41.963Z,23.28
2022-10-23T07:10:10.246Z,23.27
2022-10-23T07:12:39.870Z,23.47
2022-10-23T07:15:09.274Z,23.48
2022-10-23T07:17:37.198Z,23.47
2022-10-23T07:20:05.719Z,23.49
2022-10-23T07:22:33.739Z,23.52
2022-10-23T07:25:01.667Z,23.67
2022-10-23T07:27:29.658Z,23.73
2022-10-23T07:29:58.982Z,23.76
2022-10-23T07:32:28.887Z,23.57
2022-10-23T07:34:56.818Z,23.68
2022-10-23T07:37:24.899Z,23.77
2022-10-23T07:39:52.857Z,23.69
2022-10-23T07:42:20.785Z,23.75
2022-10-23T07:44:48.714Z,23.69
2022-10-23T07:47:18.160Z,23.59
2022-10-23T07:49:53.372Z,23.58
2022-10-23T07:52:21.462Z,23.34
2022-10-23T07:54:52.899Z,23.49
2022-10-23T07:57:21.280Z,23.57
2022-10-23T07:59:49.738Z,23.59
2022-10-23T08:02:19.237Z,23.28
2022-10-23T08:04:50.379Z,23.34
2022-10-23T08:07:18.584Z,23.22
2022-10-23T08:09:46.667Z,23.34
2022-10-23T08:12:14.748Z,23.07
2022-10-23T08:14:42.666Z,22.91
2022-10-23T08:17:11.384Z,23.12
2022-10-23T08:19:40.761Z,23.21
2022-10-23T08:22:08.683Z,23.08
2022-10-23T08:24:36.628Z,23.02
2022-10-23T08:27:04.731Z,22.94
2022-10-23T08:29:32.704Z,22.97
2022-10-23T08:32:00.660Z,23.00
2022-10-23T08:34:28.763Z,23.08
2022-10-23T08:36:58.057Z,23.18
2022-10-23T08:39:25.979Z,23.41
2022-10-23T08:41:54.613Z,23.64
2022-10-23T08:44:28.085Z,23.78
2022-10-23T08:47:03.294Z,23.92
2022-10-23T08:49:37.974Z,24.20
2022-10-23T08:52:16.947Z,24.36
2022-10-23T08:54:58.236Z,24.30
2022-10-23T08:57:33.287Z,24.42
2022-10-23T09:00:08.372Z,24.61
2022-10-23T09:02:41.978Z,24.78
2022-10-23T09:05:16.558Z,24.69
2022-10-23T09:08:00.909Z,24.69
2022-10-23T09:11:02.656Z,24.65
2022-10-23T09:13:50.124Z,24.67
2022-10-23T09:16:28.696Z,24.90
2022-10-23T09:18:58.375Z,24.87
2022-10-23T09:21:28.667Z,24.74
2022-10-23T09:23:58.289Z,24.99
2022-10-23T09:26:26.190Z,25.11
2022-10-23T09:29:03.384Z,25.30
2022-10-23T09:31:31.519Z,25.50
2022-10-23T09:34:01.328Z,25.59
2022-10-23T09:36:30.479Z,25.69
2022-10-23T09:39:01.649Z,25.86
2022-10-23T09:41:32.281Z,25.91
2022-10-23T09:44:16.794Z,25.55
2022-10-23T09:49:21.631Z,25.49
2022-10-23T09:51:55.235Z,25.60
2022-10-23T09:54:25.186Z,25.84
2022-10-23T09:56:55.335Z,25.62
2022-10-23T09:59:27.825Z,25.74
2022-10-23T10:01:58.548Z,26.16
2022-10-23T10:04:35.030Z,26.20
2022-10-23T10:07:04.591Z,26.11
2022-10-23T10:09:34.517Z,25.95
2022-10-23T10:12:21.117Z,25.71
2022-10-23T10:15:02.503Z,25.90
2022-10-23T10:17:38.957Z,26.19
2022-10-23T10:20:58.710Z,26.51
2022-10-23T10:23:34.339Z,26.81
2022-10-23T10:26:16.647Z,26.80
2022-10-23T10:29:01.193Z,26.79
2022-10-23T10:31:42.982Z,27.06
2022-10-23T10:34:18.604Z,26.89
2022-10-23T10:36:52.285Z,26.94
2022-10-23T10:39:32.805Z,26.96
2022-10-23T10:42:25.724Z,27.18
2022-10-23T10:45:16.939Z,26.86
2022-10-23T10:47:56.651Z,27.31
2022-10-23T10:50:29.712Z,27.15
2022-10-23T10:53:08.581Z,26.84
2022-10-23T10:55:40.361Z,26.77
2022-10-23T10:58:17.511Z,26.94
2022-10-23T11:00:47.820Z,26.74
2022-10-23T11:03:29.305Z,26.44
2022-10-23T11:08:49.842Z,26.46
2022-10-23T11:11:31.352Z,26.18
2022-10-23T11:14:00.879Z,26.13
2022-10-23T11:16:31.153Z,26.05
2022-10-23T11:19:11.387Z,26.03
2022-10-23T11:21:45.408Z,25.59
2022-10-23T11:24:40.688Z,25.56
2022-10-23T11:27:34.681Z,25.79
2022-10-23T11:30:19.547Z,25.88
2022-10-23T11:33:03.697Z,25.54
2022-10-23T11:35:49.443Z,25.59
2022-10-23T11:38:21.398Z,25.88
2022-10-23T11:40:52.940Z,25.74
2022-10-23T11:43:28.745Z,26.08
2022-10-23T11:45:58.439Z,26.29
2022-10-23T11:48:38.198Z,26.28
2022-10-23T11:51:29.719Z,26.48
2022-10-23T11:54:24.810Z,26.58
2022-10-23T11:56:56.748Z,26.43
2022-10-23T11:59:28.947Z,26.38
2022-10-23T12:02:01.079Z,25.95
2022-10-23T12:04:39.084Z,25.98
2022-10-23T12:07:17.640Z,26.17
2022-10-23T12:09:48.100Z,26.13
2022-10-23T12:12:28.274Z,26.21
2022-10-23T12:15:20.053Z,25.77
2022-10-23T12:17:51.462Z,25.34
2022-10-23T12:20:31.760Z,25.55
2022-10-23T12:23:16.049Z,25.90
2022-10-23T12:25:58.717Z,25.91
2022-10-23T12:28:36.040Z,25.97
2022-10-23T12:31:18.742Z,25.59
2022-10-23T12:34:00.764Z,25.52
2022-10-23T12:36:48.435Z,25.72
2022-10-23T12:39:30.221Z,25.92
2022-10-23T12:41:59.107Z,26.03
2022-10-23T12:44:28.310Z,25.73
2022-10-23T12:46:59.619Z,25.87
2022-10-23T12:49:31.544Z,25.81
2022-10-23T12:52:01.739Z,26.34
2022-10-23T12:54:32.199Z,26.41
2022-10-23T12:57:00.711Z,26.58
2022-10-23T12:59:34.467Z,26.91
2022-10-23T13:02:02.515Z,27.34
2022-10-23T13:04:34.551Z,27.55
2022-10-23T13:07:04.137Z,27.79
2022-10-23T13:09:35.901Z,27.88
2022-10-23T13:12:06.430Z,28.01
2022-10-23T13:14:40.633Z,27.45
2022-10-23T13:17:12.768Z,26.83
2022-10-23T13:19:42.092Z,26.55
2022-10-23T13:22:20.569Z,26.74
2022-10-23T13:24:49.471Z,26.66
2022-10-23T13:27:27.525Z,26.80
2022-10-23T13:29:55.521Z,27.04
2022-10-23T13:32:25.184Z,26.61
2022-10-23T13:35:04.129Z,26.95
2022-10-23T13:40:25.067Z,27.17
2022-10-23T13:42:54.602Z,27.18
2022-10-23T13:45:25.549Z,27.23
2022-10-23T13:47:53.753Z,27.28
2022-10-23T13:50:23.056Z,27.33
2022-10-23T13:52:51.022Z,27.33
2022-10-23T13:55:23.504Z,27.26
2022-10-23T13:57:51.876Z,27.05
2022-10-23T14:00:20.152Z,26.83
2022-10-23T14:02:48.133Z,26.38
2022-10-23T14:05:16.296Z,26.50
2022-10-23T14:07:45.962Z,26.37
2022-10-23T14:10:14.215Z,26.49
2022-10-23T14:12:43.083Z,26.66
2022-10-23T14:15:12.781Z,26.96
2022-10-23T14:17:40.778Z,27.38
2022-10-23T14:20:10.074Z,27.33
2022-10-23T14:22:38.919Z,27.32
2022-10-23T14:25:08.996Z,26.70
2022-10-23T14:27:39.528Z,26.81
2022-10-23T14:30:08.853Z,26.64
2022-10-23T14:32:37.012Z,26.42
2022-10-23T14:35:05.842Z,26.54
2022-10-23T14:37:34.499Z,26.36
2022-10-23T14:40:02.475Z,26.61
2022-10-23T14:42:34.417Z,26.94
2022-10-23T14:45:06.216Z,26.46
2022-10-23T14:47:34.178Z,26.33
2022-10-23T14:50:02.130Z,26.31
2022-10-23T14:52:30.056Z,26.16
2022-10-23T14:54:58.108Z,25.95
2022-10-23T14:57:26.053Z,25.93
2022-10-23T14:59:55.444Z,26.15
2022-10-23T15:02:23.429Z,26.32
2022-10-23T15:04:51.372Z,26.29
2022-10-23T15:07:19.723Z,26.10
2022-10-23T15:09:47.667Z,25.94
2022-10-23T15:12:15.592Z,26.21
2022-10-23T15:14:43.540Z,25.98
2022-10-23T15:17:15.623Z,25.77
2022-10-23T15:19:43.860Z,26.14
2022-10-23T15:22:11.793Z,25.98
2022-10-23T15:24:39.734Z,26.05
2022-10-23T15:29:40.696Z,26.38
2022-10-23T15:32:10.490Z,26.39
2022-10-23T15:34:42.760Z,26.20
2022-10-23T15:37:11.896Z,26.10
2022-10-23T15:39:39.893Z,25.90
2022-10-23T15:42:08.518Z,25.80
2022-10-23T15:44:36.609Z,25.68
2022-10-23T15:47:04.857Z,25.70
2022-10-23T15:49:33.294Z,25.75
2022-10-23T15:52:04.226Z,25.79
2022-10-23T15:54:33.124Z,25.88
2022-10-23T15:57:02.132Z,25.31
2022-10-23T15:59:31.604Z,25.32
2022-10-23T16:02:09.010Z,25.27
2022-10-23T16:04:39.663Z,25.40
2022-10-23T16:07:09.161Z,25.32
2022-10-23T16:09:37.319Z,25.32
2022-10-23T16:12:05.929Z,25.28
2022-10-23T16:14:33.868Z,25.24
2022-10-23T16:17:01.779Z,25.14
2022-10-23T16:19:29.835Z,25.18
2022-10-23T16:21:57.789Z,24.93
2022-10-23T16:24:27.097Z,24.98
2022-10-23T16:26:56.461Z,24.99
2022-10-23T16:29:25.711Z,24.98
2022-10-23T16:31:54.872Z,24.80
2022-10-23T16:34:23.032Z,24.80
2022-10-23T16:36:51.094Z,24.72
2022-10-23T16:39:20.669Z,24.58
2022-10-23T16:41:50.019Z,24.39
2022-10-23T16:44:17.944Z,24.35
2022-10-23T16:46:45.965Z,24.21
2022-10-23T16:49:14.478Z,24.07
2022-10-23T16:51:42.602Z,23.94
2022-10-23T16:54:11.336Z,23.77
2022-10-23T16:56:39.441Z,23.71
2022-10-23T16:59:12.032Z,23.48
2022-10-23T17:01:40.226Z,23.26
2022-10-23T17:04:09.635Z,23.27
2022-10-23T17:06:37.860Z,23.13
2022-10-23T17:09:06.600Z,22.91
2022-10-23T17:11:37.578Z,22.93
2022-10-23T17:14:07.563Z,22.89
2022-10-23T17:16:39.425Z,22.91
2022-10-23T17:19:20.980Z,22.91
2022-10-23T17:21:57.551Z,22.91
2022-10-23T17:24:25.606Z,22.90
2022-10-23T17:26:54.181Z,23.07
2022-10-23T17:29:22.200Z,23.21
2022-10-23T17:31:52.026Z,23.22
2022-10-23T17:34:21.981Z,23.32
2022-10-23T17:36:52.264Z,23.31
2022-10-23T17:39:22.872Z,23.36
2022-10-23T17:41:52.490Z,23.29
2022-10-23T17:44:20.472Z,23.21
2022-10-23T17:46:53.936Z,23.15
2022-10-23T17:49:22.647Z,23.20
2022-10-23T17:51:52.794Z,23.14
2022-10-23T17:54:20.746Z,23.14
2022-10-23T17:56:48.715Z,23.07
2022-10-23T17:59:19.308Z,23.10
2022-10-23T18:01:50.500Z,23.04
2022-10-23T18:04:22.020Z,23.02
2022-10-23T18:06:52.722Z,23.10
2022-10-23T18:09:22.274Z,23.00
2022-10-23T18:11:50.565Z,22.94
2022-10-23T18:14:20.344Z,22.95
2022-10-23T18:16:48.483Z,23.00
2022-10-23T18:19:18.427Z,23.07
2022-10-23T18:21:48.581Z,22.97
2022-10-23T18:24:17.385Z,23.01
2022-10-23T18:26:47.914Z,23.05
2022-10-23T18:29:17.501Z,22.94
2022-10-23T18:31:48.168Z,22.97
2022-10-23T18:34:21.851Z,22.99
2022-10-23T18:36:52.346Z,22.95
2022-10-23T18:39:23.100Z,22.87
2022-10-23T18:41:53.122Z,22.56
2022-10-23T18:44:23.420Z,22.57
2022-10-23T18:46:52.425Z,22.54
2022-10-23T18:49:21.261Z,22.43
2022-10-23T18:51:49.891Z,22.33
2022-10-23T18:54:21.188Z,22.34
2022-10-23T18:56:49.842Z,22.17
2022-10-23T18:59:21.670Z,21.92
2022-10-23T19:01:51.078Z,22.01
2022-10-23T19:04:19.641Z,21.84
2022-10-23T19:06:51.411Z,21.44
2022-10-23T19:09:21.345Z,21.50
2022-10-23T19:11:49.496Z,21.62
2022-10-23T19:14:17.539Z,21.67
2022-10-23T19:16:49.494Z,21.52
2022-10-23T19:19:21.150Z,21.52
2022-10-23T19:21:50.439Z,21.41
2022-10-23T19:24:28.600Z,21.20
2022-10-23T19:26:57.756Z,21.18
2022-10-23T19:29:28.347Z,21.07
2022-10-23T19:31:56.908Z,21.08
2022-10-23T19:34:27.648Z,21.06
2022-10-23T19:36:56.167Z,20.95
2022-10-23T19:39:27.927Z,20.72
2022-10-23T19:41:56.662Z,20.74
2022-10-23T19:44:28.078Z,20.80
2022-10-23T19:46:56.199Z,20.60
2022-10-23T19:49:24.533Z,20.25
2022-10-23T19:51:52.710Z,20.05
2022-10-23T19:54:21.465Z,19.62
2022-10-23T19:56:51.021Z,19.97
2022-10-23T19:59:19.553Z,20.06
2022-10-23T20:01:51.193Z,20.26
2022-10-23T20:04:19.810Z,20.29
2022-10-23T20:06:48.605Z,20.13
2022-10-23T20:09:16.734Z,20.33
2022-10-23T20:11:45.475Z,20.55
2022-10-23T20:14:19.055Z,20.67
2022-10-23T20:16:51.147Z,20.78
2022-10-23T20:19:23.352Z,21.15
2022-10-23T20:21:51.782Z,21.48
2022-10-23T20:24:21.311Z,21.75
2022-10-23T20:26:51.159Z,21.97
2022-10-23T20:29:21.195Z,22.18
2022-10-23T20:31:49.757Z,22.24
2022-10-23T20:34:19.091Z,22.39
2022-10-23T20:36:48.970Z,22.45
2022-10-23T20:39:19.384Z,22.66
2022-10-23T20:41:48.032Z,22.71
2022-10-23T20:44:20.436Z,22.76
2022-10-23T20:46:48.992Z,22.74
2022-10-23T20:49:17.942Z,22.83
2022-10-23T20:51:46.603Z,22.90
2022-10-23T20:54:14.519Z,22.87
2022-10-23T20:56:42.433Z,22.89
2022-10-23T20:59:13.171Z,22.94
2022-10-23T21:01:44.522Z,22.98
2022-10-23T21:04:13.884Z,23.00
2022-10-23T21:06:57.694Z,23.05
2022-10-23T21:09:31.501Z,23.09
2022-10-23T21:12:02.064Z,23.06
2022-10-23T21:14:30.437Z,23.11
2022-10-23T21:16:59.807Z,22.94
2022-10-23T21:19:27.763Z,22.98
2022-10-23T21:21:55.732Z,23.09
2022-10-23T21:24:24.164Z,23.13
2022-10-23T21:26:54.839Z,23.04
2022-10-23T21:29:22.785Z,23.11
2022-10-23T21:31:55.077Z,23.03
2022-10-23T21:34:24.981Z,22.98
2022-10-23T21:37:11.797Z,22.95
2022-10-23T21:39:40.895Z,22.84
2022-10-23T21:42:09.717Z,22.88
2022-10-23T21:44:37.706Z,22.84
2022-10-23T21:47:05.966Z,22.91
2022-10-23T21:49:35.423Z,22.75
2022-10-23T21:52:06.346Z,22.66
2022-10-23T21:54:34.317Z,22.66
2022-10-23T21:57:03.279Z,22.71
2022-10-23T21:59:33.106Z,22.73
2022-10-23T22:02:03.542Z,22.80
2022-10-23T22:04:31.589Z,22.85
2022-10-23T22:07:03.828Z,22.74
2022-10-23T22:09:35.252Z,22.83
2022-10-23T22:12:03.243Z,22.84
2022-10-23T22:14:31.274Z,22.88
2022-10-23T22:16:59.518Z,22.94
2022-10-23T22:19:27.449Z,22.69
2022-10-23T22:21:55.476Z,22.75
2022-10-23T22:24:25.584Z,22.73
2022-10-23T22:26:55.455Z,22.57
2022-10-23T22:29:25.840Z,22.61
2022-10-23T22:31:57.006Z,22.52
2022-10-23T22:34:48.381Z,22.61
2022-10-23T22:37:14.550Z,22.53
2022-10-23T22:40:01.389Z,22.45
2022-10-23T22:42:29.326Z,22.41
2022-10-23T22:44:57.236Z,22.48
2022-10-23T22:47:25.227Z,22.54
2022-10-23T22:49:53.121Z,22.46
2022-10-23T22:52:21.170Z,22.56
2022-10-23T22:54:50.488Z,22.49
2022-10-23T22:57:18.424Z,22.55
2022-10-23T22:59:46.615Z,22.47
2022-10-23T23:02:14.566Z,22.43
2022-10-23T23:04:45.144Z,22.35
2022-10-23T23:07:13.985Z,22.19
2022-10-23T23:09:45.400Z,22.14
2022-10-23T23:12:15.526Z,22.08
2022-10-23T23:14:43.674Z,22.06
2022-10-23T23:17:12.417Z,22.08
2022-10-23T23:19:40.890Z,21.97
2022-10-23T23:22:08.838Z,21.91
2022-10-23T23:24:36.771Z,21.77
2022-10-23T23:27:04.946Z,21.89
2022-10-23T23:29:36.337Z,21.78
2022-10-23T23:32:06.106Z,21.72
2022-10-23T23:34:36.740Z,21.67
2022-10-23T23:37:04.722Z,21.83
2022-10-23T23:39:32.727Z,21.75
2022-10-23T23:42:01.686Z,21.83
2022-10-23T23:44:29.611Z,21.76
2022-10-23T23:46:58.918Z,21.78
2022-10-23T23:49:26.810Z,21.77
2022-10-23T23:51:54.759Z,21.80
2022-10-23T23:54:22.686Z,21.86
2022-10-23T23:56:50.636Z,21.75
2022-10-23T23:59:20.667Z,21.86
